sensor_id;sensor_type;location;lat;lon;timestamp;P1;P2;P0
62054;PMS5003;48653;51.742;-1.256;2023-04-03T00:01:51;10;8;
62054;PMS5003;48653;51.742;-1.256;2023-04-03T00:04:16;11;8;
62054;PMS5003;48653;51.742;-1.256;2023-04-03T00:06:42;8;8;
62054;PMS5003;48653;51.742;-1.256;2023-04-03T00:09:07;9;8;
62054;PMS5003;48653;51.742;-1.256;2023-04-03T00:11:32;10;8;
62054;PMS5003;48653;51.742;-1.256;2023-04-03T00:13:57;9;7;
62054;PMS5003;48653;51.742;-1.256;2023-04-03T00:16:22;9;7;
62054;PMS5003;48653;51.742;-1.256;2023-04-03T00:18:48;13;7;
62054;PMS5003;48653;51.742;-1.256;2023-04-03T00:21:13;10;8;
62054;PMS5003;48653;51.742;-1.256;2023-04-03T00:23:38;10;7;
62054;PMS5003;48653;51.742;-1.256;2023-04-03T00:26:03;11;10;
62054;PMS5003;48653;51.742;-1.256;2023-04-03T00:28:29;9;7;
62054;PMS5003;48653;51.742;-1.256;2023-04-03T00:30:54;11;9;
62054;PMS5003;48653;51.742;-1.256;2023-04-03T00:33:20;8;8;
62054;PMS5003;48653;51.742;-1.256;2023-04-03T00:35:45;11;8;
62054;PMS5003;48653;51.742;-1.256;2023-04-03T00:38:10;8;6;
62054;PMS5003;48653;51.742;-1.256;2023-04-03T00:40:37;10;8;
62054;PMS5003;48653;51.742;-1.256;2023-04-03T00:43:01;12;10;
62054;PMS5003;48653;51.742;-1.256;2023-04-03T00:45:28;15;9;
62054;PMS5003;48653;51.742;-1.256;2023-04-03T00:47:52;11;9;
62054;PMS5003;48653;51.742;-1.256;2023-04-03T00:50:17;12;10;
62054;PMS5003;48653;51.742;-1.256;2023-04-03T00:52:43;7;6;
62054;PMS5003;48653;51.742;-1.256;2023-04-03T00:55:08;12;11;
62054;PMS5003;48653;51.742;-1.256;2023-04-03T00:57:34;8;8;
62054;PMS5003;48653;51.742;-1.256;2023-04-03T00:59:59;10;8;
62054;PMS5003;48653;51.742;-1.256;2023-04-03T01:02:24;10;9;
62054;PMS5003;48653;51.742;-1.256;2023-04-03T01:04:49;9;9;
62054;PMS5003;48653;51.742;-1.256;2023-04-03T01:07:15;6;6;
62054;PMS5003;48653;51.742;-1.256;2023-04-03T01:09:40;10;7;
62054;PMS5003;48653;51.742;-1.256;2023-04-03T01:12:14;7;7;
62054;PMS5003;48653;51.742;-1.256;2023-04-03T01:14:30;12;8;
62054;PMS5003;48653;51.742;-1.256;2023-04-03T01:16:56;9;9;
62054;PMS5003;48653;51.742;-1.256;2023-04-03T01:19:22;14;9;
62054;PMS5003;48653;51.742;-1.256;2023-04-03T01:24:17;9;8;
62054;PMS5003;48653;51.742;-1.256;2023-04-03T01:26:37;10;7;
62054;PMS5003;48653;51.742;-1.256;2023-04-03T01:29:03;6;6;
62054;PMS5003;48653;51.742;-1.256;2023-04-03T01:31:30;10;7;
62054;PMS5003;48653;51.742;-1.256;2023-04-03T01:33:54;11;7;
62054;PMS5003;48653;51.742;-1.256;2023-04-03T01:36:19;7;6;
62054;PMS5003;48653;51.742;-1.256;2023-04-03T01:38:44;13;8;
62054;PMS5003;48653;51.742;-1.256;2023-04-03T01:41:10;8;8;
62054;PMS5003;48653;51.742;-1.256;2023-04-03T01:43:35;9;8;
62054;PMS5003;48653;51.742;-1.256;2023-04-03T01:46:00;12;11;
62054;PMS5003;48653;51.742;-1.256;2023-04-03T01:48:25;9;7;
62054;PMS5003;48653;51.742;-1.256;2023-04-03T01:50:51;10;9;
62054;PMS5003;48653;51.742;-1.256;2023-04-03T01:53:16;9;8;
62054;PMS5003;48653;51.742;-1.256;2023-04-03T01:55:41;12;10;
62054;PMS5003;48653;51.742;-1.256;2023-04-03T01:58:07;10;9;
62054;PMS5003;48653;51.742;-1.256;2023-04-03T02:00:33;11;9;
62054;PMS5003;48653;51.742;-1.256;2023-04-03T02:02:59;9;7;
62054;PMS5003;48653;51.742;-1.256;2023-04-03T02:05:24;10;9;
62054;PMS5003;48653;51.742;-1.256;2023-04-03T02:07:50;8;8;
62054;PMS5003;48653;51.742;-1.256;2023-04-03T02:10:15;9;8;
62054;PMS5003;48653;51.742;-1.256;2023-04-03T02:12:40;8;8;
62054;PMS5003;48653;51.742;-1.256;2023-04-03T02:15:07;13;11;
62054;PMS5003;48653;51.742;-1.256;2023-04-03T02:17:31;15;7;
62054;PMS5003;48653;51.742;-1.256;2023-04-03T02:19:57;8;6;
62054;PMS5003;48653;51.742;-1.256;2023-04-03T02:22:22;8;7;
62054;PMS5003;48653;51.742;-1.256;2023-04-03T02:24:48;8;8;
62054;PMS5003;48653;51.742;-1.256;2023-04-03T02:27:13;7;7;
62054;PMS5003;48653;51.742;-1.256;2023-04-03T02:29:39;7;7;
62054;PMS5003;48653;51.742;-1.256;2023-04-03T02:32:04;13;8;
62054;PMS5003;48653;51.742;-1.256;2023-04-03T02:34:29;12;7;
62054;PMS5003;48653;51.742;-1.256;2023-04-03T02:36:54;8;7;
62054;PMS5003;48653;51.742;-1.256;2023-04-03T02:39:19;10;6;
62054;PMS5003;48653;51.742;-1.256;2023-04-03T02:41:45;9;7;
62054;PMS5003;48653;51.742;-1.256;2023-04-03T02:44:10;13;7;
62054;PMS5003;48653;51.742;-1.256;2023-04-03T02:46:35;9;7;
62054;PMS5003;48653;51.742;-1.256;2023-04-03T02:49:00;8;6;
62054;PMS5003;48653;51.742;-1.256;2023-04-03T02:51:25;9;5;
62054;PMS5003;48653;51.742;-1.256;2023-04-03T02:53:51;8;6;
62054;PMS5003;48653;51.742;-1.256;2023-04-03T02:56:16;11;7;
62054;PMS5003;48653;51.742;-1.256;2023-04-03T02:58:42;9;6;
62054;PMS5003;48653;51.742;-1.256;2023-04-03T03:01:07;10;7;
62054;PMS5003;48653;51.742;-1.256;2023-04-03T03:03:32;9;8;
62054;PMS5003;48653;51.742;-1.256;2023-04-03T03:06:02;8;6;
62054;PMS5003;48653;51.742;-1.256;2023-04-03T03:08:22;11;8;
62054;PMS5003;48653;51.742;-1.256;2023-04-03T03:10:48;8;6;
62054;PMS5003;48653;51.742;-1.256;2023-04-03T03:13:13;11;8;
62054;PMS5003;48653;51.742;-1.256;2023-04-03T03:15:38;9;5;
62054;PMS5003;48653;51.742;-1.256;2023-04-03T03:18:03;8;6;
62054;PMS5003;48653;51.742;-1.256;2023-04-03T03:20:29;10;7;
62054;PMS5003;48653;51.742;-1.256;2023-04-03T03:22:55;8;7;
62054;PMS5003;48653;51.742;-1.256;2023-04-03T03:25:20;6;6;
62054;PMS5003;48653;51.742;-1.256;2023-04-03T03:27:45;7;5;
62054;PMS5003;48653;51.742;-1.256;2023-04-03T03:30:11;9;6;
62054;PMS5003;48653;51.742;-1.256;2023-04-03T03:32:36;8;5;
62054;PMS5003;48653;51.742;-1.256;2023-04-03T03:35:02;10;6;
62054;PMS5003;48653;51.742;-1.256;2023-04-03T03:37:28;6;6;
62054;PMS5003;48653;51.742;-1.256;2023-04-03T03:39:53;10;7;
62054;PMS5003;48653;51.742;-1.256;2023-04-03T03:42:18;12;10;
62054;PMS5003;48653;51.742;-1.256;2023-04-03T03:44:43;17;11;
62054;PMS5003;48653;51.742;-1.256;2023-04-03T03:47:08;8;6;
62054;PMS5003;48653;51.742;-1.256;2023-04-03T03:49:34;9;6;
62054;PMS5003;48653;51.742;-1.256;2023-04-03T03:51:59;11;10;
62054;PMS5003;48653;51.742;-1.256;2023-04-03T03:54:24;14;14;
62054;PMS5003;48653;51.742;-1.256;2023-04-03T03:56:50;15;11;
62054;PMS5003;48653;51.742;-1.256;2023-04-03T03:59:16;17;13;
62054;PMS5003;48653;51.742;-1.256;2023-04-03T04:01:41;12;11;
62054;PMS5003;48653;51.742;-1.256;2023-04-03T04:04:07;23;20;
62054;PMS5003;48653;51.742;-1.256;2023-04-03T04:06:33;15;15;
62054;PMS5003;48653;51.742;-1.256;2023-04-03T04:08:58;17;16;
62054;PMS5003;48653;51.742;-1.256;2023-04-03T04:11:24;25;19;
62054;PMS5003;48653;51.742;-1.256;2023-04-03T04:13:49;20;18;
62054;PMS5003;48653;51.742;-1.256;2023-04-03T04:16:14;16;15;
62054;PMS5003;48653;51.742;-1.256;2023-04-03T04:18:39;23;19;
62054;PMS5003;48653;51.742;-1.256;2023-04-03T04:21:05;19;18;
62054;PMS5003;48653;51.742;-1.256;2023-04-03T04:23:30;22;17;
62054;PMS5003;48653;51.742;-1.256;2023-04-03T04:25:57;19;19;
62054;PMS5003;48653;51.742;-1.256;2023-04-03T04:28:22;24;18;
62054;PMS5003;48653;51.742;-1.256;2023-04-03T04:30:47;18;17;
62054;PMS5003;48653;51.742;-1.256;2023-04-03T04:33:13;26;22;
62054;PMS5003;48653;51.742;-1.256;2023-04-03T04:35:38;14;14;
62054;PMS5003;48653;51.742;-1.256;2023-04-03T04:38:04;20;18;
62054;PMS5003;48653;51.742;-1.256;2023-04-03T04:40:29;27;18;
62054;PMS5003;48653;51.742;-1.256;2023-04-03T04:42:55;23;18;
62054;PMS5003;48653;51.742;-1.256;2023-04-03T04:45:20;25;22;
62054;PMS5003;48653;51.742;-1.256;2023-04-03T04:47:45;19;18;
62054;PMS5003;48653;51.742;-1.256;2023-04-03T04:50:11;19;17;
62054;PMS5003;48653;51.742;-1.256;2023-04-03T04:52:36;21;16;
62054;PMS5003;48653;51.742;-1.256;2023-04-03T04:55:01;19;16;
62054;PMS5003;48653;51.742;-1.256;2023-04-03T04:57:27;21;18;
62054;PMS5003;48653;51.742;-1.256;2023-04-03T04:59:53;22;16;
62054;PMS5003;48653;51.742;-1.256;2023-04-03T05:02:18;23;19;
62054;PMS5003;48653;51.742;-1.256;2023-04-03T05:04:43;22;20;
62054;PMS5003;48653;51.742;-1.256;2023-04-03T05:07:09;18;16;
62054;PMS5003;48653;51.742;-1.256;2023-04-03T05:09:35;18;16;
62054;PMS5003;48653;51.742;-1.256;2023-04-03T05:11:59;14;12;
62054;PMS5003;48653;51.742;-1.256;2023-04-03T05:14:25;18;17;
62054;PMS5003;48653;51.742;-1.256;2023-04-03T05:16:50;19;15;
62054;PMS5003;48653;51.742;-1.256;2023-04-03T05:19:16;21;17;
62054;PMS5003;48653;51.742;-1.256;2023-04-03T05:21:41;16;13;
62054;PMS5003;48653;51.742;-1.256;2023-04-03T05:24:07;18;16;
62054;PMS5003;48653;51.742;-1.256;2023-04-03T05:26:32;19;17;
62054;PMS5003;48653;51.742;-1.256;2023-04-03T05:28:58;19;18;
62054;PMS5003;48653;51.742;-1.256;2023-04-03T05:31:23;18;14;
62054;PMS5003;48653;51.742;-1.256;2023-04-03T05:33:48;14;14;
62054;PMS5003;48653;51.742;-1.256;2023-04-03T05:36:13;18;17;
62054;PMS5003;48653;51.742;-1.256;2023-04-03T05:38:39;18;15;
62054;PMS5003;48653;51.742;-1.256;2023-04-03T05:41:05;18;14;
62054;PMS5003;48653;51.742;-1.256;2023-04-03T05:43:30;21;18;
62054;PMS5003;48653;51.742;-1.256;2023-04-03T05:45:56;17;13;
62054;PMS5003;48653;51.742;-1.256;2023-04-03T05:48:21;17;16;
62054;PMS5003;48653;51.742;-1.256;2023-04-03T05:50:47;15;14;
62054;PMS5003;48653;51.742;-1.256;2023-04-03T05:53:14;16;14;
62054;PMS5003;48653;51.742;-1.256;2023-04-03T05:55:38;12;12;
62054;PMS5003;48653;51.742;-1.256;2023-04-03T05:58:03;14;14;
62054;PMS5003;48653;51.742;-1.256;2023-04-03T06:00:29;11;11;
62054;PMS5003;48653;51.742;-1.256;2023-04-03T06:02:54;16;14;
62054;PMS5003;48653;51.742;-1.256;2023-04-03T06:05:20;17;13;
62054;PMS5003;48653;51.742;-1.256;2023-04-03T06:07:45;17;14;
62054;PMS5003;48653;51.742;-1.256;2023-04-03T06:10:11;18;16;
62054;PMS5003;48653;51.742;-1.256;2023-04-03T06:12:36;15;12;
62054;PMS5003;48653;51.742;-1.256;2023-04-03T06:15:02;17;16;
62054;PMS5003;48653;51.742;-1.256;2023-04-03T06:17:27;16;10;
62054;PMS5003;48653;51.742;-1.256;2023-04-03T06:19:53;18;14;
62054;PMS5003;48653;51.742;-1.256;2023-04-03T06:22:18;18;16;
62054;PMS5003;48653;51.742;-1.256;2023-04-03T06:24:43;15;13;
62054;PMS5003;48653;51.742;-1.256;2023-04-03T06:27:09;13;11;
62054;PMS5003;48653;51.742;-1.256;2023-04-03T06:29:34;19;15;
62054;PMS5003;48653;51.742;-1.256;2023-04-03T06:32:00;15;12;
62054;PMS5003;48653;51.742;-1.256;2023-04-03T06:34:25;17;13;
62054;PMS5003;48653;51.742;-1.256;2023-04-03T06:36:51;18;13;
62054;PMS5003;48653;51.742;-1.256;2023-04-03T06:39:17;16;13;
62054;PMS5003;48653;51.742;-1.256;2023-04-03T06:41:42;21;19;
62054;PMS5003;48653;51.742;-1.256;2023-04-03T06:44:07;18;13;
62054;PMS5003;48653;51.742;-1.256;2023-04-03T06:46:33;22;17;
62054;PMS5003;48653;51.742;-1.256;2023-04-03T06:48:58;16;16;
62054;PMS5003;48653;51.742;-1.256;2023-04-03T06:51:24;14;13;
62054;PMS5003;48653;51.742;-1.256;2023-04-03T06:53:49;15;13;
62054;PMS5003;48653;51.742;-1.256;2023-04-03T06:56:15;12;12;
62054;PMS5003;48653;51.742;-1.256;2023-04-03T06:58:40;15;13;
62054;PMS5003;48653;51.742;-1.256;2023-04-03T07:01:06;14;11;
62054;PMS5003;48653;51.742;-1.256;2023-04-03T07:03:32;20;16;
62054;PMS5003;48653;51.742;-1.256;2023-04-03T07:05:57;17;13;
62054;PMS5003;48653;51.742;-1.256;2023-04-03T07:08:23;23;15;
62054;PMS5003;48653;51.742;-1.256;2023-04-03T07:10:48;14;12;
62054;PMS5003;48653;51.742;-1.256;2023-04-03T07:13:13;18;15;
62054;PMS5003;48653;51.742;-1.256;2023-04-03T07:15:39;10;10;
62054;PMS5003;48653;51.742;-1.256;2023-04-03T07:18:04;10;10;
62054;PMS5003;48653;51.742;-1.256;2023-04-03T07:20:30;10;9;
62054;PMS5003;48653;51.742;-1.256;2023-04-03T07:22:55;14;9;
62054;PMS5003;48653;51.742;-1.256;2023-04-03T07:25:21;13;11;
62054;PMS5003;48653;51.742;-1.256;2023-04-03T07:27:47;10;9;
62054;PMS5003;48653;51.742;-1.256;2023-04-03T07:30:12;12;9;
62054;PMS5003;48653;51.742;-1.256;2023-04-03T07:32:37;13;10;
62054;PMS5003;48653;51.742;-1.256;2023-04-03T07:35:02;16;12;
62054;PMS5003;48653;51.742;-1.256;2023-04-03T07:37:28;10;10;
62054;PMS5003;48653;51.742;-1.256;2023-04-03T07:39:54;11;8;
62054;PMS5003;48653;51.742;-1.256;2023-04-03T07:42:19;11;8;
62054;PMS5003;48653;51.742;-1.256;2023-04-03T07:44:44;15;14;
62054;PMS5003;48653;51.742;-1.256;2023-04-03T07:47:10;15;11;
62054;PMS5003;48653;51.742;-1.256;2023-04-03T07:49:35;12;11;
62054;PMS5003;48653;51.742;-1.256;2023-04-03T07:52:01;11;8;
62054;PMS5003;48653;51.742;-1.256;2023-04-03T07:54:27;10;9;
62054;PMS5003;48653;51.742;-1.256;2023-04-03T07:56:51;11;10;
62054;PMS5003;48653;51.742;-1.256;2023-04-03T07:59:17;9;9;
62054;PMS5003;48653;51.742;-1.256;2023-04-03T08:01:42;17;13;
62054;PMS5003;48653;51.742;-1.256;2023-04-03T08:04:08;11;11;
62054;PMS5003;48653;51.742;-1.256;2023-04-03T08:06:33;11;9;
62054;PMS5003;48653;51.742;-1.256;2023-04-03T08:08:58;11;10;
62054;PMS5003;48653;51.742;-1.256;2023-04-03T08:11:24;15;9;
62054;PMS5003;48653;51.742;-1.256;2023-04-03T08:13:49;8;8;
62054;PMS5003;48653;51.742;-1.256;2023-04-03T08:16:16;10;9;
62054;PMS5003;48653;51.742;-1.256;2023-04-03T08:18:40;11;11;
62054;PMS5003;48653;51.742;-1.256;2023-04-03T08:21:06;16;13;
62054;PMS5003;48653;51.742;-1.256;2023-04-03T08:23:31;11;10;
62054;PMS5003;48653;51.742;-1.256;2023-04-03T08:25:56;12;11;
62054;PMS5003;48653;51.742;-1.256;2023-04-03T08:28:22;11;10;
62054;PMS5003;48653;51.742;-1.256;2023-04-03T08:30:47;12;10;
62054;PMS5003;48653;51.742;-1.256;2023-04-03T08:33:13;17;10;
62054;PMS5003;48653;51.742;-1.256;2023-04-03T08:35:38;10;10;
62054;PMS5003;48653;51.742;-1.256;2023-04-03T08:38:03;15;14;
62054;PMS5003;48653;51.742;-1.256;2023-04-03T08:40:28;6;5;
62054;PMS5003;48653;51.742;-1.256;2023-04-03T08:42:57;6;6;
62054;PMS5003;48653;51.742;-1.256;2023-04-03T08:45:20;12;8;
62054;PMS5003;48653;51.742;-1.256;2023-04-03T08:47:45;11;8;
62054;PMS5003;48653;51.742;-1.256;2023-04-03T08:50:11;8;8;
62054;PMS5003;48653;51.742;-1.256;2023-04-03T08:52:36;8;8;
62054;PMS5003;48653;51.742;-1.256;2023-04-03T08:55:00;9;7;
62054;PMS5003;48653;51.742;-1.256;2023-04-03T08:57:28;10;8;
62054;PMS5003;48653;51.742;-1.256;2023-04-03T08:59:51;13;12;
62054;PMS5003;48653;51.742;-1.256;2023-04-03T09:02:21;8;7;
62054;PMS5003;48653;51.742;-1.256;2023-04-03T09:04:41;11;9;
62054;PMS5003;48653;51.742;-1.256;2023-04-03T09:07:08;8;8;
62054;PMS5003;48653;51.742;-1.256;2023-04-03T09:09:33;8;7;
62054;PMS5003;48653;51.742;-1.256;2023-04-03T09:11:58;7;6;
62054;PMS5003;48653;51.742;-1.256;2023-04-03T09:14:23;8;7;
62054;PMS5003;48653;51.742;-1.256;2023-04-03T09:16:48;7;6;
62054;PMS5003;48653;51.742;-1.256;2023-04-03T09:19:15;11;8;
62054;PMS5003;48653;51.742;-1.256;2023-04-03T09:21:38;9;7;
62054;PMS5003;48653;51.742;-1.256;2023-04-03T09:24:04;8;7;
62054;PMS5003;48653;51.742;-1.256;2023-04-03T09:26:30;8;8;
62054;PMS5003;48653;51.742;-1.256;2023-04-03T09:28:54;11;8;
62054;PMS5003;48653;51.742;-1.256;2023-04-03T09:31:20;7;7;
62054;PMS5003;48653;51.742;-1.256;2023-04-03T09:33:44;10;7;
62054;PMS5003;48653;51.742;-1.256;2023-04-03T09:36:09;6;6;
62054;PMS5003;48653;51.742;-1.256;2023-04-03T09:38:35;13;10;
62054;PMS5003;48653;51.742;-1.256;2023-04-03T09:41:04;8;8;
62054;PMS5003;48653;51.742;-1.256;2023-04-03T09:43:26;10;8;
62054;PMS5003;48653;51.742;-1.256;2023-04-03T09:45:51;7;7;
62054;PMS5003;48653;51.742;-1.256;2023-04-03T09:48:16;8;8;
62054;PMS5003;48653;51.742;-1.256;2023-04-03T09:50:52;6;6;
62054;PMS5003;48653;51.742;-1.256;2023-04-03T09:53:06;8;7;
62054;PMS5003;48653;51.742;-1.256;2023-04-03T09:55:31;10;8;
62054;PMS5003;48653;51.742;-1.256;2023-04-03T09:57:57;8;8;
62054;PMS5003;48653;51.742;-1.256;2023-04-03T10:00:23;13;8;
62054;PMS5003;48653;51.742;-1.256;2023-04-03T10:02:46;12;8;
62054;PMS5003;48653;51.742;-1.256;2023-04-03T10:07:37;7;7;
62054;PMS5003;48653;51.742;-1.256;2023-04-03T10:10:03;11;9;
62054;PMS5003;48653;51.742;-1.256;2023-04-03T10:12:28;12;10;
62054;PMS5003;48653;51.742;-1.256;2023-04-03T10:14:54;11;8;
62054;PMS5003;48653;51.742;-1.256;2023-04-03T10:17:21;12;9;
62054;PMS5003;48653;51.742;-1.256;2023-04-03T10:19:45;12;10;
62054;PMS5003;48653;51.742;-1.256;2023-04-03T10:22:13;10;10;
62054;PMS5003;48653;51.742;-1.256;2023-04-03T10:24:36;13;10;
62054;PMS5003;48653;51.742;-1.256;2023-04-03T10:27:01;15;14;
62054;PMS5003;48653;51.742;-1.256;2023-04-03T10:29:32;11;10;
62054;PMS5003;48653;51.742;-1.256;2023-04-03T10:31:51;9;9;
62054;PMS5003;48653;51.742;-1.256;2023-04-03T10:34:17;11;11;
62054;PMS5003;48653;51.742;-1.256;2023-04-03T10:36:41;15;11;
62054;PMS5003;48653;51.742;-1.256;2023-04-03T10:39:09;14;11;
62054;PMS5003;48653;51.742;-1.256;2023-04-03T10:41:33;13;11;
62054;PMS5003;48653;51.742;-1.256;2023-04-03T10:43:59;13;10;
62054;PMS5003;48653;51.742;-1.256;2023-04-03T10:46:22;12;11;
62054;PMS5003;48653;51.742;-1.256;2023-04-03T10:48:51;10;10;
62054;PMS5003;48653;51.742;-1.256;2023-04-03T10:51:15;12;12;
62054;PMS5003;48653;51.742;-1.256;2023-04-03T10:53:37;10;10;
62054;PMS5003;48653;51.742;-1.256;2023-04-03T10:56:03;11;11;
62054;PMS5003;48653;51.742;-1.256;2023-04-03T10:58:29;12;11;
62054;PMS5003;48653;51.742;-1.256;2023-04-03T11:00:53;12;10;
62054;PMS5003;48653;51.742;-1.256;2023-04-03T11:03:23;16;14;
62054;PMS5003;48653;51.742;-1.256;2023-04-03T11:05:44;20;13;
62054;PMS5003;48653;51.742;-1.256;2023-04-03T11:08:10;11;11;
62054;PMS5003;48653;51.742;-1.256;2023-04-03T11:10:36;14;12;
62054;PMS5003;48653;51.742;-1.256;2023-04-03T11:13:01;15;14;
62054;PMS5003;48653;51.742;-1.256;2023-04-03T11:15:29;15;13;
62054;PMS5003;48653;51.742;-1.256;2023-04-03T11:17:51;13;13;
62054;PMS5003;48653;51.742;-1.256;2023-04-03T11:20:16;12;11;
62054;PMS5003;48653;51.742;-1.256;2023-04-03T11:22:41;19;17;
62054;PMS5003;48653;51.742;-1.256;2023-04-03T11:25:10;14;14;
62054;PMS5003;48653;51.742;-1.256;2023-04-03T11:27:33;19;15;
62054;PMS5003;48653;51.742;-1.256;2023-04-03T11:29:56;11;11;
62054;PMS5003;48653;51.742;-1.256;2023-04-03T11:32:29;16;13;
62054;PMS5003;48653;51.742;-1.256;2023-04-03T11:34:47;16;13;
62054;PMS5003;48653;51.742;-1.256;2023-04-03T11:37:13;16;12;
62054;PMS5003;48653;51.742;-1.256;2023-04-03T11:39:37;10;9;
62054;PMS5003;48653;51.742;-1.256;2023-04-03T11:44:30;16;13;
62054;PMS5003;48653;51.742;-1.256;2023-04-03T11:46:54;14;12;
62054;PMS5003;48653;51.742;-1.256;2023-04-03T11:51:43;15;15;
62054;PMS5003;48653;51.742;-1.256;2023-04-03T11:56:34;13;12;
62054;PMS5003;48653;51.742;-1.256;2023-04-03T12:08:43;20;18;
62054;PMS5003;48653;51.742;-1.256;2023-04-03T12:11:14;16;15;
62054;PMS5003;48653;51.742;-1.256;2023-04-03T12:13:31;18;13;
62054;PMS5003;48653;51.742;-1.256;2023-04-03T12:15:56;16;15;
62054;PMS5003;48653;51.742;-1.256;2023-04-03T12:20:53;18;17;
62054;PMS5003;48653;51.742;-1.256;2023-04-03T12:25:43;18;14;
62054;PMS5003;48653;51.742;-1.256;2023-04-03T12:28:04;15;15;
62054;PMS5003;48653;51.742;-1.256;2023-04-03T12:30:29;14;14;
62054;PMS5003;48653;51.742;-1.256;2023-04-03T12:32:58;14;13;
62054;PMS5003;48653;51.742;-1.256;2023-04-03T12:35:21;12;11;
62054;PMS5003;48653;51.742;-1.256;2023-04-03T12:37:51;20;18;
62054;PMS5003;48653;51.742;-1.256;2023-04-03T12:40:14;17;15;
62054;PMS5003;48653;51.742;-1.256;2023-04-03T12:42:41;16;15;
62054;PMS5003;48653;51.742;-1.256;2023-04-03T12:45:02;12;11;
62054;PMS5003;48653;51.742;-1.256;2023-04-03T12:47:27;13;12;
62054;PMS5003;48653;51.742;-1.256;2023-04-03T12:49:52;19;16;
62054;PMS5003;48653;51.742;-1.256;2023-04-03T12:52:17;17;14;
62054;PMS5003;48653;51.742;-1.256;2023-04-03T12:54:41;18;13;
62054;PMS5003;48653;51.742;-1.256;2023-04-03T12:57:10;11;11;
62054;PMS5003;48653;51.742;-1.256;2023-04-03T12:59:32;14;13;
62054;PMS5003;48653;51.742;-1.256;2023-04-03T13:01:57;15;14;
62054;PMS5003;48653;51.742;-1.256;2023-04-03T13:04:22;16;14;
62054;PMS5003;48653;51.742;-1.256;2023-04-03T13:06:47;16;14;
62054;PMS5003;48653;51.742;-1.256;2023-04-03T13:09:19;12;12;
62054;PMS5003;48653;51.742;-1.256;2023-04-03T13:11:39;14;14;
62054;PMS5003;48653;51.742;-1.256;2023-04-03T13:14:04;13;13;
62054;PMS5003;48653;51.742;-1.256;2023-04-03T13:16:29;14;14;
62054;PMS5003;48653;51.742;-1.256;2023-04-03T13:18:55;13;13;
62054;PMS5003;48653;51.742;-1.256;2023-04-03T13:21:20;17;15;
62054;PMS5003;48653;51.742;-1.256;2023-04-03T13:23:45;13;13;
62054;PMS5003;48653;51.742;-1.256;2023-04-03T13:26:10;10;10;
62054;PMS5003;48653;51.742;-1.256;2023-04-03T13:28:35;12;12;
62054;PMS5003;48653;51.742;-1.256;2023-04-03T13:31:02;18;15;
62054;PMS5003;48653;51.742;-1.256;2023-04-03T13:33:26;13;13;
62054;PMS5003;48653;51.742;-1.256;2023-04-03T13:35:54;12;11;
62054;PMS5003;48653;51.742;-1.256;2023-04-03T13:38:23;15;13;
62054;PMS5003;48653;51.742;-1.256;2023-04-03T13:45:33;14;11;
62054;PMS5003;48653;51.742;-1.256;2023-04-03T13:48:08;12;11;
62054;PMS5003;48653;51.742;-1.256;2023-04-03T13:50:23;14;11;
62054;PMS5003;48653;51.742;-1.256;2023-04-03T13:52:49;9;9;
62054;PMS5003;48653;51.742;-1.256;2023-04-03T13:55:17;12;9;
62054;PMS5003;48653;51.742;-1.256;2023-04-03T14:02:30;13;13;
62054;PMS5003;48653;51.742;-1.256;2023-04-03T14:04:55;12;11;
62054;PMS5003;48653;51.742;-1.256;2023-04-03T14:07:19;11;11;
62054;PMS5003;48653;51.742;-1.256;2023-04-03T14:09:44;11;11;
62054;PMS5003;48653;51.742;-1.256;2023-04-03T14:12:12;11;10;
62054;PMS5003;48653;51.742;-1.256;2023-04-03T14:14:35;11;10;
62054;PMS5003;48653;51.742;-1.256;2023-04-03T14:17:01;14;11;
62054;PMS5003;48653;51.742;-1.256;2023-04-03T14:19:26;17;10;
62054;PMS5003;48653;51.742;-1.256;2023-04-03T14:21:50;12;11;
62054;PMS5003;48653;51.742;-1.256;2023-04-03T14:24:15;12;9;
62054;PMS5003;48653;51.742;-1.256;2023-04-03T14:26:40;12;12;
62054;PMS5003;48653;51.742;-1.256;2023-04-03T14:29:05;10;10;
62054;PMS5003;48653;51.742;-1.256;2023-04-03T14:31:30;11;10;
62054;PMS5003;48653;51.742;-1.256;2023-04-03T14:33:55;12;10;
62054;PMS5003;48653;51.742;-1.256;2023-04-03T14:36:21;13;12;
62054;PMS5003;48653;51.742;-1.256;2023-04-03T14:38:46;11;9;
62054;PMS5003;48653;51.742;-1.256;2023-04-03T14:41:12;13;12;
62054;PMS5003;48653;51.742;-1.256;2023-04-03T14:43:36;11;9;
62054;PMS5003;48653;51.742;-1.256;2023-04-03T14:46:02;11;10;
62054;PMS5003;48653;51.742;-1.256;2023-04-03T14:48:27;14;8;
62054;PMS5003;48653;51.742;-1.256;2023-04-03T14:50:53;10;10;
62054;PMS5003;48653;51.742;-1.256;2023-04-03T14:53:19;10;10;
62054;PMS5003;48653;51.742;-1.256;2023-04-03T14:55:44;13;12;
62054;PMS5003;48653;51.742;-1.256;2023-04-03T14:58:11;9;9;
62054;PMS5003;48653;51.742;-1.256;2023-04-03T15:00:34;14;12;
62054;PMS5003;48653;51.742;-1.256;2023-04-03T15:02:59;11;11;
62054;PMS5003;48653;51.742;-1.256;2023-04-03T15:05:24;10;8;
62054;PMS5003;48653;51.742;-1.256;2023-04-03T15:07:50;10;10;
62054;PMS5003;48653;51.742;-1.256;2023-04-03T15:10:16;12;11;
62054;PMS5003;48653;51.742;-1.256;2023-04-03T15:12:39;13;13;
62054;PMS5003;48653;51.742;-1.256;2023-04-03T15:15:05;14;12;
62054;PMS5003;48653;51.742;-1.256;2023-04-03T15:17:30;13;13;
62054;PMS5003;48653;51.742;-1.256;2023-04-03T15:19:55;14;9;
62054;PMS5003;48653;51.742;-1.256;2023-04-03T15:22:20;13;13;
62054;PMS5003;48653;51.742;-1.256;2023-04-03T15:24:45;13;11;
62054;PMS5003;48653;51.742;-1.256;2023-04-03T15:27:11;14;11;
62054;PMS5003;48653;51.742;-1.256;2023-04-03T15:29:37;21;20;
62054;PMS5003;48653;51.742;-1.256;2023-04-03T15:32:02;16;14;
62054;PMS5003;48653;51.742;-1.256;2023-04-03T15:34:28;13;12;
62054;PMS5003;48653;51.742;-1.256;2023-04-03T15:36:53;14;12;
62054;PMS5003;48653;51.742;-1.256;2023-04-03T15:39:18;14;12;
62054;PMS5003;48653;51.742;-1.256;2023-04-03T15:41:43;14;13;
62054;PMS5003;48653;51.742;-1.256;2023-04-03T15:44:08;18;15;
62054;PMS5003;48653;51.742;-1.256;2023-04-03T15:46:33;14;14;
62054;PMS5003;48653;51.742;-1.256;2023-04-03T15:48:59;18;16;
62054;PMS5003;48653;51.742;-1.256;2023-04-03T15:51:24;16;16;
62054;PMS5003;48653;51.742;-1.256;2023-04-03T15:53:50;13;11;
62054;PMS5003;48653;51.742;-1.256;2023-04-03T15:56:15;15;13;
62054;PMS5003;48653;51.742;-1.256;2023-04-03T15:58:41;18;15;
62054;PMS5003;48653;51.742;-1.256;2023-04-03T16:01:08;11;11;
62054;PMS5003;48653;51.742;-1.256;2023-04-03T16:03:31;18;16;
62054;PMS5003;48653;51.742;-1.256;2023-04-03T16:05:57;16;14;
62054;PMS5003;48653;51.742;-1.256;2023-04-03T16:08:23;13;13;
62054;PMS5003;48653;51.742;-1.256;2023-04-03T16:10:48;14;12;
62054;PMS5003;48653;51.742;-1.256;2023-04-03T16:13:14;11;11;
62054;PMS5003;48653;51.742;-1.256;2023-04-03T16:15:39;15;13;
62054;PMS5003;48653;51.742;-1.256;2023-04-03T16:18:04;11;10;
62054;PMS5003;48653;51.742;-1.256;2023-04-03T16:20:29;13;10;
62054;PMS5003;48653;51.742;-1.256;2023-04-03T16:22:55;12;11;
62054;PMS5003;48653;51.742;-1.256;2023-04-03T16:25:20;13;13;
62054;PMS5003;48653;51.742;-1.256;2023-04-03T16:27:45;14;14;
62054;PMS5003;48653;51.742;-1.256;2023-04-03T16:30:10;12;12;
62054;PMS5003;48653;51.742;-1.256;2023-04-03T16:32:35;11;11;
62054;PMS5003;48653;51.742;-1.256;2023-04-03T16:35:00;12;10;